createdAt,value
2023-04-06T00:00:00.000Z,75.6
2023-04-06T00:02:00.000Z,77.1
2023-04-06T00:03:00.000Z,77.9
2023-04-06T00:04:00.000Z,78.9
2023-04-06T00:05:00.000Z,79.8
2023-04-06T00:06:00.000Z,79.5
2023-04-06T00:07:00.000Z,80.2
2023-04-06T00:08:00.000Z,81.0
2023-04-06T00:09:00.000Z,82.1
2023-04-06T00:10:00.000Z,82.2
2023-04-06T00:11:00.000Z,81.9
2023-04-06T00:12:00.000Z,82.1
2023-04-06T00:13:00.000Z,82.9
2023-04-06T00:14:00.000Z,84.1
2023-04-06T00:15:00.000Z,85.4
2023-04-06T00:16:00.000Z,86.6
2023-04-06T00:17:00.000Z,87.8
2023-04-06T00:18:00.000Z,88.6
2023-04-06T00:19:00.000Z,88.9
2023-04-06T00:20:00.000Z,90.3
2023-04-06T00:21:00.000Z,91.1
2023-04-06T00:22:00.000Z,91.2
2023-04-06T00:23:00.000Z,90.9
2023-04-06T00:24:00.000Z,90.8
2023-04-06T00:25:00.000Z,90.9
2023-04-06T00:26:00.000Z,90.0
2023-04-06T00:27:00.000Z,89.3
2023-04-06T00:28:00.000Z,88.7
2023-04-06T00:29:00.000Z,87.6
2023-04-06T00:30:00.000Z,87.7
2023-04-06T00:31:00.000Z,87.4
2023-04-06T00:32:00.000Z,87.7
2023-04-06T00:33:00.000Z,87.6
2023-04-06T00:34:00.000Z,88.2
2023-04-06T00:35:00.000Z,89.0
2023-04-06T00:36:00.000Z,90.6
2023-04-06T00:37:00.000Z,92.4
2023-04-06T00:38:00.000Z,95.1
2023-04-06T00:39:00.000Z,96.2
2023-04-06T00:40:00.000Z,97.2
2023-04-06T00:41:00.000Z,99.2
2023-04-06T00:42:00.000Z,99.9
2023-04-06T00:43:00.000Z,101.8
2023-04-06T00:44:00.000Z,102.6
2023-04-06T00:45:00.000Z,103.3
